Terminal Aerodrome Forecast
Issued by NWS

Home | Current Version | Previous Version | Text Only | Print | Product List | Glossary On
Versions: 1 2 3 4 5 6 7 8 9 10 11 12 13 14 15 16 17 18 19 20 21 22 23 24 25 26 27 28 29 30
443
FTAK31 PAFA 301740
TAFAUN
TAF
PAUN 301740Z 3018/3118 20012KT 5SM -RA BR BKN015 OVC025
      TEMPO 3018/3020 BKN008
     FM310000 36015KT P6SM -SHRA BKN015 OVC025
     FM310500 02010KT P6SM OVC050
     FM311400 02007KT P6SM SCT050=

USA.gov is the U.S. government's official web portal to all federal, state and local government web resources and services.